.
WxDataArchive / Data Records for 2014-05-31
2014-05-30 May 2014 2014-06-01

Data Records for Saturday, 31 May 2014

Time	Temp	Chill	HIndex	Humid	Dewpt	 Wind 	HiWind	WindDir	Rain 	Barom
-----	----	-----	------	-----	-----	------	------	-------	-----	-----
00:00	67.1	67.1	67.1	54	49.9	0	1	90	0.00	30.143 
00:05	66.8	66.8	66.8	54	49.6	0	0	---	0.00	30.143 
00:10	66.6	66.6	66.6	54	49.4	0	0	---	0.00	30.143 
00:15	66.3	66.3	66.3	55	49.6	0	0	---	0.00	30.146 
00:20	66.0	66.0	66.0	55	49.4	0	0	---	0.00	30.146 
00:25	65.6	65.6	65.6	56	49.5	0	0	---	0.00	30.146 
00:30	65.3	65.3	65.3	57	49.7	0	0	---	0.00	30.147 
00:35	65.0	65.0	65.0	57	49.4	0	0	---	0.00	30.147 
00:40	64.7	64.7	64.7	57	49.1	0	0	---	0.00	30.147 
00:45	64.5	64.5	64.5	58	49.4	0	0	---	0.00	30.152 
00:50	64.3	64.3	64.3	58	49.2	0	0	---	0.00	30.152 
00:55	64.0	64.0	64.0	59	49.4	0	0	---	0.00	30.152 
01:00	63.7	63.7	63.7	59	49.1	0	0	---	0.00	30.152 
01:05	63.5	63.5	63.5	59	48.9	0	0	---	0.00	30.152 
01:10	63.2	63.2	63.2	60	49.1	0	0	---	0.00	30.152 
01:15	62.9	62.9	62.9	60	48.8	0	0	---	0.00	30.146 
01:20	62.6	62.6	62.6	61	49.0	0	0	---	0.00	30.146 
01:25	62.4	62.4	62.4	61	48.8	0	0	---	0.00	30.146 
01:30	62.1	62.1	62.1	62	48.9	0	0	---	0.00	30.151 
01:35	61.8	61.8	61.8	62	48.6	0	0	---	0.00	30.151 
01:40	61.5	61.5	61.5	63	48.8	0	0	---	0.00	30.151 
01:45	61.3	61.3	61.3	64	49.0	0	0	---	0.00	30.153 
01:50	61.0	61.0	61.0	64	48.7	0	0	---	0.00	30.153 
01:55	60.9	60.9	60.9	65	49.1	0	0	---	0.00	30.153 
02:00	60.5	60.5	60.5	65	48.7	0	0	---	0.00	30.153 
02:05	60.4	60.4	60.4	66	49.0	0	0	---	0.00	30.153 
02:10	60.1	60.1	60.1	67	49.1	0	0	---	0.00	30.153 
02:15	59.8	59.8	59.8	68	49.2	0	0	---	0.00	30.151 
02:20	59.5	59.5	59.5	69	49.3	0	0	---	0.00	30.151 
02:25	59.2	59.2	59.2	70	49.4	0	0	---	0.00	30.151 
02:30	59.0	59.0	59.0	71	49.6	0	0	---	0.00	30.151 
02:35	58.7	58.7	58.7	72	49.7	0	0	---	0.00	30.151 
02:40	58.6	58.6	58.6	73	50.0	0	0	---	0.00	30.151 
02:45	58.4	58.4	58.4	73	49.8	0	0	---	0.00	30.150 
02:50	58.3	58.3	58.3	74	50.0	0	0	---	0.00	30.150 
02:55	58.1	58.1	58.1	75	50.2	0	0	---	0.00	30.150 
03:00	58.0	58.0	58.0	75	50.1	0	0	---	0.00	30.154 
03:05	57.8	57.8	57.8	76	50.3	0	0	---	0.00	30.154 
03:10	57.6	57.6	57.6	76	50.1	0	0	---	0.00	30.154 
03:15	57.5	57.5	57.5	77	50.3	0	0	---	0.00	30.148 
03:20	57.3	57.3	57.3	77	50.1	0	0	---	0.00	30.148 
03:25	57.2	57.2	57.2	78	50.4	0	0	---	0.00	30.148 
03:30	57.0	57.0	57.0	79	50.5	0	0	---	0.00	30.149 
03:35	56.9	56.9	56.9	79	50.5	0	0	---	0.00	30.149 
03:40	56.7	56.7	56.7	80	50.6	0	0	---	0.00	30.149 
03:45	56.6	56.6	56.6	80	50.5	0	0	---	0.00	30.152 
03:50	56.5	56.5	56.5	81	50.7	0	0	---	0.00	30.152 
03:55	56.3	56.3	56.3	81	50.5	0	0	---	0.00	30.152 
04:00	56.2	56.2	56.2	81	50.4	0	0	---	0.00	30.156 
04:05	56.0	56.0	56.0	82	50.6	0	0	---	0.00	30.156 
04:10	56.0	56.0	56.0	82	50.6	0	0	---	0.00	30.156 
04:15	55.9	55.9	55.9	83	50.8	0	0	---	0.00	30.158 
04:20	55.7	55.7	55.7	83	50.6	0	0	---	0.00	30.158 
04:25	55.7	55.7	55.7	84	50.9	0	0	---	0.00	30.158 
04:30	55.6	55.6	55.6	84	50.8	0	0	---	0.00	30.163 
04:35	55.4	55.4	55.4	84	50.6	0	0	---	0.00	30.163 
04:40	55.3	55.3	55.3	84	50.5	0	0	---	0.00	30.163 
04:45	55.1	55.1	55.1	84	50.4	0	0	---	0.00	30.164 
04:50	55.1	55.1	55.1	84	50.4	0	0	---	0.00	30.164 
04:55	55.0	55.0	55.0	85	50.6	0	0	---	0.00	30.164 
05:00	55.0	55.0	55.0	85	50.6	0	0	---	0.00	30.166 
05:05	54.8	54.8	54.8	85	50.4	0	0	---	0.00	30.166 
05:10	54.8	54.8	54.8	86	50.7	0	0	---	0.00	30.166 
05:15	54.8	54.8	54.8	86	50.7	0	0	---	0.00	30.175 
05:20	54.8	54.8	54.8	86	50.7	0	0	---	0.00	30.175 
05:25	54.8	54.8	54.8	86	50.7	0	0	---	0.00	30.175 
05:30	54.7	54.7	54.7	86	50.6	0	0	---	0.00	30.176 
05:35	54.7	54.7	54.7	86	50.6	0	0	---	0.00	30.176 
05:40	54.5	54.5	54.5	86	50.4	0	0	---	0.00	30.176 
05:45	54.5	54.5	54.5	87	50.7	0	0	---	0.00	30.178 
05:50	54.4	54.4	54.4	87	50.6	0	0	---	0.00	30.178 
05:55	54.4	54.4	54.4	87	50.6	0	0	---	0.00	30.178 
06:00	54.4	54.4	54.4	88	50.9	0	0	---	0.00	30.181 
06:05	54.2	54.2	54.2	88	50.7	0	0	---	0.00	30.181 
06:10	54.2	54.2	54.2	88	50.7	0	0	---	0.00	30.181 
06:15	54.2	54.2	54.2	88	50.7	0	1	90	0.00	30.181 
06:20	54.2	54.2	54.2	89	51.0	0	0	---	0.00	30.181 
06:25	54.4	54.4	54.4	89	51.2	0	0	---	0.00	30.181 
06:30	54.4	54.4	54.4	89	51.2	0	0	---	0.00	30.183 
06:35	54.2	54.2	54.2	89	51.0	0	0	---	0.00	30.183 
06:40	54.2	54.2	54.2	89	51.0	0	0	---	0.00	30.183 
06:45	54.4	54.4	54.4	89	51.2	0	0	---	0.00	30.186 
06:50	54.5	54.5	54.5	89	51.3	0	0	---	0.00	30.186 
06:55	54.7	54.7	54.7	90	51.8	0	0	---	0.00	30.186 
07:00	54.8	54.8	54.8	90	51.9	0	0	---	0.00	30.187 
07:05	55.1	55.1	55.1	90	52.2	0	0	---	0.00	30.187 
07:10	55.4	55.4	55.4	90	52.5	0	0	---	0.00	30.187 
07:15	55.9	55.9	55.9	91	53.3	0	0	---	0.00	30.190 
07:20	56.5	56.5	56.5	91	53.9	0	0	---	0.00	30.190 
07:25	57.0	57.0	57.0	90	54.1	0	0	---	0.00	30.190 
07:30	58.1	58.1	58.1	88	54.6	0	3	90	0.00	30.193 
07:35	59.5	59.5	59.5	81	53.7	1	3	90	0.00	30.193 
07:40	60.7	60.7	60.7	74	52.4	1	4	90	0.00	30.193 
07:45	61.8	61.8	61.8	71	52.3	1	3	90	0.00	30.193 
07:50	62.7	62.7	62.7	68	52.0	1	4	90	0.00	30.193 
07:55	63.5	63.5	63.5	67	52.3	1	3	90	0.00	30.193 
08:00	64.3	64.3	64.3	65	52.3	1	3	90	0.00	30.191 
08:05	64.8	64.8	64.8	65	52.8	1	3	90	0.00	30.191 
08:10	65.3	65.3	65.3	64	52.8	1	5	90	0.00	30.191 
08:15	65.6	65.6	65.6	64	53.1	1	3	90	0.00	30.193 
08:20	66.0	66.0	66.0	64	53.5	1	4	90	0.00	30.193 
08:25	66.4	66.4	66.4	62	53.0	1	3	90	0.00	30.193 
08:30	66.9	66.9	66.9	62	53.4	1	2	90	0.00	30.193 
08:35	67.4	67.4	67.4	61	53.5	0	3	90	0.00	30.193 
08:40	67.9	67.9	67.9	60	53.5	1	5	90	0.00	30.193 
08:45	68.4	68.4	68.4	60	54.0	1	3	90	0.00	30.192 
08:50	68.9	68.9	68.9	59	54.0	1	3	90	0.00	30.192 
08:55	69.3	69.3	69.3	58	53.9	1	3	90	0.00	30.192 
09:00	69.8	69.8	69.8	58	54.3	1	3	90	0.00	30.191 
09:05	70.1	70.1	70.1	57	54.1	1	2	90	0.00	30.191 
09:10	70.6	70.6	70.6	54	53.1	1	4	90	0.00	30.191 
09:15	70.9	70.9	70.9	56	54.4	0	3	90	0.00	30.195 
09:20	71.6	71.6	71.6	54	54.1	0	3	90	0.00	30.195 
09:25	72.5	72.5	72.5	53	54.4	0	2	90	0.00	30.195 
09:30	73.2	73.2	73.2	51	54.0	0	4	90	0.00	30.190 
09:35	73.9	73.9	73.9	50	54.1	1	3	90	0.00	30.190 
09:40	74.2	74.2	74.2	49	53.8	0	3	90	0.00	30.190 
09:45	74.7	74.7	74.7	50	54.8	0	2	90	0.00	30.189 
09:50	74.9	74.9	74.9	49	54.4	1	3	90	0.00	30.189 
09:55	74.7	74.7	74.7	50	54.8	1	2	90	0.00	30.189 
10:00	75.1	75.1	77.7	48	54.1	0	2	90	0.00	30.194 
10:05	75.3	75.3	77.7	48	54.2	1	3	90	0.00	30.194 
10:10	75.6	75.6	77.9	49	55.1	1	3	90	0.00	30.194 
10:15	76.0	76.0	78.0	47	54.3	0	3	90	0.00	30.193 
10:20	76.3	76.3	78.1	46	54.0	1	3	90	0.00	30.193 
10:25	76.5	76.5	78.3	48	55.3	1	3	90	0.00	30.193 
10:30	77.0	77.0	78.5	48	55.8	0	2	90	0.00	30.188 
10:35	77.0	77.0	78.5	47	55.2	1	3	90	0.00	30.188 
10:40	77.2	77.2	78.6	47	55.4	0	2	90	0.00	30.188 
10:45	77.6	77.6	78.8	46	55.2	1	3	90	0.00	30.186 
10:50	77.7	77.7	78.9	46	55.2	0	2	90	0.00	30.186 
10:55	78.3	78.3	79.1	44	54.6	1	4	90	0.00	30.186 
11:00	78.8	78.8	79.2	41	53.1	1	4	90	0.00	30.180 
11:05	78.6	78.6	79.2	43	54.2	1	3	90	0.00	30.180 
11:10	78.8	78.8	79.4	43	54.4	0	2	90	0.00	30.180 
11:15	79.4	79.4	79.7	42	54.3	0	3	90	0.00	30.177 
11:20	79.6	79.6	79.8	42	54.5	1	4	90	0.00	30.177 
11:25	79.4	79.4	79.6	41	53.6	1	4	90	0.00	30.177 
11:30	79.4	79.4	79.5	40	52.9	1	6	90	0.00	30.174 
11:35	79.6	79.6	79.6	39	52.4	1	5	90	0.00	30.174 
11:40	80.1	80.1	79.9	39	52.9	0	2	68	0.00	30.174 
11:45	80.9	80.9	80.5	39	53.6	0	3	68	0.00	30.171 
11:50	81.2	81.2	80.7	39	53.9	0	3	315	0.00	30.171 
11:55	81.8	81.8	81.2	39	54.4	0	2	315	0.00	30.171 
12:00	82.0	82.0	81.2	38	53.9	1	2	112	0.00	30.172 
12:05	82.4	82.4	81.6	38	54.2	1	2	45	0.00	30.172 
12:10	82.4	82.4	81.2	35	52.0	1	4	112	0.00	30.172 
12:15	82.4	82.4	81.4	37	53.5	0	3	135	0.00	30.172 
12:20	83.0	83.0	82.0	37	54.0	0	2	135	0.00	30.172 
12:25	83.0	83.0	82.0	37	54.0	1	3	135	0.00	30.172 
12:30	83.2	83.2	81.7	33	51.1	0	2	135	0.00	30.170 
12:35	83.4	83.4	82.3	37	54.4	0	2	135	0.00	30.170 
12:40	83.2	83.2	81.8	34	51.9	2	4	135	0.00	30.170 
12:45	82.8	82.8	81.6	35	52.3	1	3	135	0.00	30.165 
12:50	82.4	82.4	81.1	34	51.2	1	3	135	0.00	30.165 
12:55	82.4	82.4	81.4	37	53.5	0	2	135	0.00	30.165 
13:00	82.6	82.6	81.4	35	52.1	1	3	135	0.00	30.160 
13:05	83.0	83.0	81.7	35	52.5	1	6	135	0.00	30.160 
13:10	83.2	83.2	81.9	35	52.7	0	3	112	0.00	30.160 
13:15	83.4	83.4	82.4	38	55.1	1	3	112	0.00	30.155 
13:20	83.8	83.8	82.1	32	50.8	1	4	112	0.00	30.155 
13:25	84.1	84.1	82.8	36	54.2	0	2	158	0.00	30.155 
13:30	84.1	84.1	82.5	34	52.7	1	3	135	0.00	30.153 
13:35	84.1	84.1	82.2	31	50.2	0	2	135	0.00	30.153 
13:40	84.3	84.3	82.7	34	52.8	0	1	135	0.00	30.153 
13:45	84.3	84.3	82.9	35	53.6	1	4	135	0.00	30.147 
13:50	84.5	84.5	82.5	31	50.5	1	4	112	0.00	30.147 
13:55	84.1	84.1	82.4	33	51.9	1	3	112	0.00	30.147 
14:00	84.1	84.1	82.2	31	50.2	1	4	112	0.00	30.144 
14:05	84.1	84.1	82.3	32	51.0	1	6	68	0.00	30.144 
14:10	84.3	84.3	82.4	31	50.3	1	5	68	0.00	30.144 
14:15	84.0	84.0	82.7	36	54.1	1	5	112	0.00	30.141 
14:20	84.1	84.1	82.2	31	50.2	2	3	135	0.00	30.141 
14:25	84.3	84.3	82.7	34	52.8	0	3	90	0.00	30.141 
14:30	84.7	84.7	82.7	31	50.7	1	3	90	0.00	30.141 
14:35	84.9	84.9	82.9	31	50.9	2	5	112	0.00	30.141 
14:40	84.5	84.5	82.6	32	51.4	2	5	112	0.00	30.141 
14:45	84.3	84.3	82.4	31	50.3	2	6	112	0.00	30.132 
14:50	84.5	84.5	82.3	29	48.7	1	4	90	0.00	30.132 
14:55	84.7	84.7	83.2	35	54.0	1	2	22	0.00	30.132 
15:00	84.9	84.9	83.4	35	54.2	1	6	45	0.00	30.129 
15:05	85.1	85.1	83.6	35	54.3	2	5	90	0.00	30.129 
15:10	85.3	85.3	83.8	35	54.5	1	4	112	0.00	30.129 
15:15	85.5	85.5	83.3	30	50.5	1	4	112	0.00	30.130 
15:20	85.1	85.1	82.9	30	50.1	2	6	90	0.00	30.130 
15:25	85.1	85.1	82.9	30	50.1	2	5	90	0.00	30.130 
15:30	85.3	85.3	83.8	35	54.5	0	2	112	0.00	30.127 
15:35	85.5	85.5	83.3	30	50.5	2	4	90	0.00	30.127 
15:40	85.3	85.3	82.9	28	48.5	2	4	90	0.00	30.127 
15:45	85.1	85.1	82.9	30	50.1	2	5	90	0.00	30.124 
15:50	84.9	84.9	82.8	30	50.0	2	5	90	0.00	30.124 
15:55	85.1	85.1	83.1	31	51.0	2	4	90	0.00	30.124 
16:00	85.3	85.3	83.2	31	51.2	1	3	90	0.00	30.114 
16:05	85.7	85.7	83.7	32	52.4	2	4	90	0.00	30.114 
16:10	85.7	85.7	83.7	32	52.4	1	6	90	0.00	30.114 
16:15	85.5	85.5	83.2	29	49.6	2	4	90	0.00	30.108 
16:20	85.3	85.3	83.1	30	50.3	1	4	90	0.00	30.108 
16:25	85.5	85.5	83.4	31	51.4	1	5	90	0.00	30.108 
16:30	85.5	85.5	83.3	30	50.5	2	5	90	0.00	30.102 
16:35	85.3	85.3	83.2	31	51.2	3	6	90	0.00	30.102 
16:40	85.1	85.1	83.1	31	51.0	1	4	112	0.00	30.102 
16:45	85.1	85.1	82.9	30	50.1	3	6	90	0.00	30.102 
16:50	84.9	84.9	82.8	30	50.0	1	4	90	0.00	30.102 
16:55	85.1	85.1	82.9	30	50.1	1	4	90	0.00	30.102 
17:00	85.3	85.3	82.9	28	48.5	1	7	68	0.00	30.101 
17:05	85.3	85.3	82.9	28	48.5	2	6	68	0.00	30.101 
17:10	85.1	85.1	82.6	27	47.3	2	5	112	0.00	30.101 
17:15	85.1	85.1	82.7	28	48.3	2	5	112	0.00	30.100 
17:20	85.1	85.1	82.8	29	49.2	2	4	90	0.00	30.100 
17:25	85.1	85.1	83.1	31	51.0	1	3	112	0.00	30.100 
17:30	85.1	85.1	82.7	28	48.3	1	4	90	0.00	30.099 
17:35	85.1	85.1	82.8	29	49.2	1	5	90	0.00	30.099 
17:40	85.1	85.1	83.1	31	51.0	1	4	90	0.00	30.099 
17:45	84.9	84.9	82.6	28	48.1	2	7	90	0.00	30.093 
17:50	84.7	84.7	82.5	29	48.9	2	7	90	0.00	30.093 
17:55	84.5	84.5	82.4	30	49.6	1	3	90	0.00	30.093 
18:00	84.3	84.3	82.1	28	47.6	2	10	135	0.00	30.093 
18:05	84.1	84.1	81.9	28	47.4	2	7	90	0.00	30.093 
18:10	84.1	84.1	81.9	28	47.4	2	4	90	0.00	30.093 
18:15	84.0	84.0	81.9	29	48.3	1	5	90	0.00	30.088 
18:20	84.0	84.0	81.8	28	47.4	1	5	90	0.00	30.088 
18:25	83.8	83.8	81.6	27	46.2	1	4	90	0.00	30.088 
18:30	83.8	83.8	81.7	29	48.1	1	4	112	0.00	30.083 
18:35	83.8	83.8	81.7	29	48.1	1	4	112	0.00	30.083 
18:40	83.6	83.6	81.6	29	48.0	2	5	90	0.00	30.083 
18:45	83.4	83.4	81.4	29	47.8	1	3	180	0.00	30.081 
18:50	83.4	83.4	81.5	30	48.7	1	2	180	0.00	30.081 
18:55	83.2	83.2	81.3	29	47.6	2	6	90	0.00	30.081 
19:00	83.0	83.0	81.2	30	48.3	1	4	68	0.00	30.079 
19:05	82.8	82.8	81.2	31	49.0	1	2	68	0.00	30.079 
19:10	82.6	82.6	81.1	32	49.7	1	5	68	0.00	30.079 
19:15	82.4	82.4	80.9	31	48.7	2	4	90	0.00	30.066 
19:20	82.4	82.4	80.9	32	49.5	1	4	90	0.00	30.066 
19:25	82.4	82.4	81.0	33	50.4	2	5	90	0.00	30.066 
19:30	82.2	82.2	80.7	31	48.5	2	5	90	0.00	30.067 
19:35	82.2	82.2	80.7	31	48.5	1	4	68	0.00	30.067 
19:40	82.0	82.0	80.7	32	49.2	1	3	68	0.00	30.067 
19:45	82.0	82.0	80.6	31	48.4	2	4	90	0.00	30.074 
19:50	81.8	81.8	80.5	32	49.0	1	3	68	0.00	30.074 
19:55	81.6	81.6	80.5	33	49.7	1	3	68	0.00	30.074 
20:00	81.4	81.4	80.3	33	49.5	2	5	68	0.00	30.076 
20:05	81.2	81.2	80.3	34	50.1	2	4	90	0.00	30.076 
20:10	81.1	81.1	80.3	35	50.8	2	6	90	0.00	30.076 
20:15	80.9	80.9	80.1	35	50.7	1	3	90	0.00	30.075 
20:20	80.7	80.7	80.1	36	51.2	1	5	68	0.00	30.075 
20:25	80.3	80.3	80.0	38	52.4	2	3	68	0.00	30.075 
20:30	80.1	80.1	79.9	39	52.9	1	4	68	0.00	30.077 
20:35	79.8	79.8	79.8	40	53.3	2	6	68	0.00	30.077 
20:40	79.4	79.4	79.5	40	52.9	3	7	90	0.00	30.077 
20:45	79.0	79.0	79.3	40	52.6	3	7	112	0.00	30.078 
20:50	78.5	78.5	79.1	42	53.5	2	5	90	0.00	30.078 
20:55	77.9	77.9	78.8	43	53.6	2	4	68	0.00	30.078 
21:00	77.4	77.4	78.6	43	53.1	2	5	68	0.00	30.085 
21:05	76.8	76.8	78.3	43	52.6	2	5	90	0.00	30.085 
21:10	76.7	76.7	78.2	43	52.5	2	6	90	0.00	30.085 
21:15	76.3	76.3	78.0	43	52.1	2	6	90	0.00	30.086 
21:20	76.0	76.0	77.9	43	51.9	3	9	90	0.00	30.086 
21:25	75.6	75.6	77.8	44	52.1	1	3	90	0.00	30.086 
21:30	75.3	75.3	77.7	45	52.5	2	5	90	0.00	30.087 
21:35	74.9	74.9	74.9	45	52.1	3	6	68	0.00	30.087 
21:40	74.6	74.6	74.6	45	51.8	2	7	90	0.00	30.087 
21:45	74.2	74.2	74.2	45	51.5	2	4	90	0.00	30.094 
21:50	73.9	73.9	73.9	46	51.8	1	3	112	0.00	30.094 
21:55	73.7	73.7	73.7	46	51.6	2	5	68	0.00	30.094 
22:00	73.3	73.3	73.3	47	51.8	1	3	112	0.00	30.103 
22:05	73.0	73.0	73.0	47	51.6	1	3	45	0.00	30.103 
22:10	72.8	72.8	72.8	48	52.0	0	1	45	0.00	30.103 
22:15	72.5	72.5	72.5	49	52.2	1	3	45	0.00	30.106 
22:20	72.1	72.1	72.1	49	51.9	1	3	68	0.00	30.106 
22:25	71.8	71.8	71.8	50	52.1	0	2	68	0.00	30.106 
22:30	71.6	71.6	71.6	50	52.0	0	1	68	0.00	30.115 
22:35	71.3	71.3	71.3	51	52.2	1	3	68	0.00	30.115 
22:40	70.9	70.9	70.9	51	51.9	1	4	68	0.00	30.115 
22:45	70.8	70.8	70.8	52	52.3	1	3	68	0.00	30.117 
22:50	70.4	70.4	70.4	52	51.9	2	5	68	0.00	30.117 
22:55	70.3	70.3	70.3	52	51.8	1	3	45	0.00	30.117 
23:00	69.9	69.9	69.9	53	52.0	1	3	90	0.00	30.122 
23:05	69.8	69.8	69.8	53	51.9	1	4	90	0.00	30.122 
23:10	69.4	69.4	69.4	54	52.0	1	2	90	0.00	30.122 
23:15	69.1	69.1	69.1	54	51.7	1	3	90	0.00	30.122 
23:20	68.9	68.9	68.9	54	51.6	1	2	90	0.00	30.122 
23:25	68.6	68.6	68.6	54	51.3	1	4	90	0.00	30.122 
23:30	68.4	68.4	68.4	53	50.6	2	4	90	0.00	30.131 
23:35	68.1	68.1	68.1	53	50.3	1	4	90	0.00	30.131 
23:40	67.9	67.9	67.9	52	49.6	1	4	90	0.00	30.131 
23:45	67.6	67.6	67.6	51	48.8	1	3	90	0.00	30.127 
23:50	67.4	67.4	67.4	51	48.6	2	3	90	0.00	30.127 
23:55	67.3	67.3	67.3	51	48.5	2	4	90	0.00	30.127 

CoCoRaHS
IN-AL-39
A2 Web Hosting
Creative Commons License
GoDaddy
search engine by freefind advanced

loaded 2018-11-20 14:40:40 • last modified 2010-11-18 10:43:29
Privacy PolicyDisclaimer
• wx.awcolley.com is powered by PmWiki v.2002016 •
• all content (unless otherwise noted) © 2018 A W Colley